createdAt,value
2023-05-15T00:01:37.724Z,1.42
2023-05-15T00:04:13.135Z,2.25
2023-05-15T00:09:43.606Z,2.25
2023-05-15T00:12:11.402Z,1.40
2023-05-15T00:14:39.096Z,2.88
2023-05-15T00:17:08.095Z,2.38
2023-05-15T00:19:35.852Z,1.67
2023-05-15T00:22:06.228Z,2.63
2023-05-15T00:24:34.804Z,2.13
2023-05-15T00:27:02.705Z,2.00
2023-05-15T00:29:31.309Z,2.50
2023-05-15T00:31:59.767Z,1.67
2023-05-15T00:34:27.449Z,1.45
2023-05-15T00:36:55.648Z,2.97
2023-05-15T00:39:23.504Z,2.00
2023-05-15T00:41:52.719Z,1.80
2023-05-15T00:44:21.094Z,2.50
2023-05-15T00:49:20.118Z,1.90
2023-05-15T00:51:48.631Z,1.77
2023-05-15T00:54:16.621Z,2.10
2023-05-15T00:56:46.068Z,2.15
2023-05-15T00:59:14.053Z,1.90
2023-05-15T01:04:09.578Z,2.20
2023-05-15T01:06:38.166Z,1.30
2023-05-15T01:09:08.418Z,1.80
2023-05-15T01:11:38.526Z,1.70
2023-05-15T01:14:10.029Z,1.58
2023-05-15T01:16:38.877Z,1.48
2023-05-15T01:19:06.622Z,1.92
2023-05-15T01:21:35.230Z,3.22
2023-05-15T01:24:31.244Z,1.70
2023-05-15T01:27:26.166Z,2.53
2023-05-15T01:30:12.155Z,1.95
2023-05-15T01:33:17.657Z,2.40
2023-05-15T01:36:30.049Z,1.90
2023-05-15T01:39:01.565Z,1.70
2023-05-15T01:41:52.432Z,2.22
2023-05-15T01:44:40.028Z,1.85
2023-05-15T01:47:13.413Z,2.03
2023-05-15T01:49:44.148Z,2.53
2023-05-15T01:52:20.794Z,1.48
2023-05-15T01:54:50.191Z,1.80
2023-05-15T01:57:19.021Z,1.75
2023-05-15T01:59:46.954Z,2.25
2023-05-15T02:02:15.451Z,2.00
2023-05-15T02:04:45.477Z,1.52
2023-05-15T02:07:14.828Z,1.77
2023-05-15T02:09:46.927Z,1.90
2023-05-15T02:12:15.850Z,1.58
2023-05-15T02:14:44.028Z,1.90
2023-05-15T02:17:13.254Z,2.03
2023-05-15T02:19:40.890Z,1.85
2023-05-15T02:22:10.556Z,2.30
2023-05-15T02:24:38.356Z,1.33
2023-05-15T02:27:13.144Z,2.28
2023-05-15T02:30:06.569Z,1.55
2023-05-15T02:32:52.996Z,2.10
2023-05-15T02:35:36.483Z,2.30
2023-05-15T02:38:13.290Z,2.38
2023-05-15T02:40:41.873Z,1.90
2023-05-15T02:43:10.962Z,1.75
2023-05-15T02:45:40.221Z,1.67
2023-05-15T02:48:09.151Z,2.03
2023-05-15T02:50:37.213Z,1.67
2023-05-15T02:55:36.180Z,2.75
2023-05-15T02:58:04.682Z,1.73
2023-05-15T03:00:32.333Z,1.85
2023-05-15T03:03:00.243Z,2.85
2023-05-15T03:05:27.988Z,2.33
2023-05-15T03:07:57.947Z,1.75
2023-05-15T03:10:26.101Z,2.22
2023-05-15T03:12:54.879Z,1.55
2023-05-15T03:15:23.930Z,1.80
2023-05-15T03:17:52.146Z,1.45
2023-05-15T03:22:47.547Z,1.13
2023-05-15T03:25:16.581Z,1.27
2023-05-15T03:27:44.185Z,1.85
2023-05-15T03:30:11.953Z,2.50
2023-05-15T03:32:39.574Z,1.75
2023-05-15T03:35:07.776Z,2.35
2023-05-15T03:40:05.048Z,2.95
2023-05-15T03:42:32.875Z,2.63
2023-05-15T03:45:00.549Z,1.88
2023-05-15T03:47:28.109Z,1.23
2023-05-15T03:49:55.747Z,2.08
2023-05-15T03:52:23.358Z,1.33
2023-05-15T03:54:51.190Z,1.55
2023-05-15T03:59:46.675Z,1.80
2023-05-15T04:02:14.458Z,1.70
2023-05-15T04:04:42.160Z,1.55
2023-05-15T04:07:09.987Z,2.05
2023-05-15T04:09:37.596Z,2.08
2023-05-15T04:12:05.966Z,2.75
2023-05-15T04:14:33.980Z,3.22
2023-05-15T04:17:01.520Z,1.90
2023-05-15T04:19:29.241Z,1.67
2023-05-15T04:21:56.958Z,2.60
2023-05-15T04:24:24.456Z,1.42
2023-05-15T04:26:52.092Z,1.60
2023-05-15T04:29:19.866Z,2.03
2023-05-15T04:31:47.458Z,2.45
2023-05-15T04:34:15.070Z,3.25
2023-05-15T04:36:43.044Z,2.05
2023-05-15T04:41:38.317Z,1.70
2023-05-15T04:44:06.515Z,2.55
2023-05-15T04:46:34.986Z,1.63
2023-05-15T04:49:02.925Z,1.92
2023-05-15T04:51:31.021Z,2.20
2023-05-15T04:56:26.251Z,2.30
2023-05-15T04:58:54.166Z,1.27
2023-05-15T05:01:21.813Z,2.55
2023-05-15T05:03:49.922Z,2.35
2023-05-15T05:06:19.012Z,1.90
2023-05-15T05:08:47.017Z,2.55
2023-05-15T05:11:15.383Z,2.33
2023-05-15T05:13:44.604Z,2.13
2023-05-15T05:16:12.276Z,1.42
2023-05-15T05:18:40.831Z,2.05
2023-05-15T05:21:08.681Z,2.30
2023-05-15T05:23:36.338Z,1.92
2023-05-15T05:26:05.330Z,1.83
2023-05-15T05:28:33.642Z,1.70
2023-05-15T05:31:02.591Z,1.92
2023-05-15T05:33:31.970Z,2.78
2023-05-15T05:36:00.295Z,2.08
2023-05-15T05:38:27.789Z,2.75
2023-05-15T05:40:55.407Z,1.85
2023-05-15T05:43:23.275Z,1.80
2023-05-15T05:45:52.009Z,1.90
2023-05-15T05:48:19.757Z,2.47
2023-05-15T05:50:49.455Z,2.40
2023-05-15T05:53:17.304Z,1.80
2023-05-15T05:55:45.164Z,1.55
2023-05-15T05:58:18.327Z,2.40
2023-05-15T06:00:53.053Z,2.10
2023-05-15T06:05:49.389Z,1.98
2023-05-15T06:08:17.240Z,1.42
2023-05-15T06:10:44.878Z,3.03
2023-05-15T06:13:14.861Z,1.83
2023-05-15T06:15:43.793Z,1.65
2023-05-15T06:18:12.549Z,1.73
2023-05-15T06:20:42.705Z,1.70
2023-05-15T06:23:10.561Z,1.23
2023-05-15T06:25:38.771Z,2.20
2023-05-15T06:30:34.186Z,1.80
2023-05-15T06:33:02.913Z,2.15
2023-05-15T06:35:30.655Z,1.55
2023-05-15T06:37:58.730Z,2.63
2023-05-15T06:45:21.846Z,2.10
2023-05-15T06:47:50.003Z,1.73
2023-05-15T06:50:17.833Z,1.20
2023-05-15T06:52:45.561Z,2.50
2023-05-15T06:55:19.255Z,1.38
2023-05-15T06:57:46.860Z,1.60
2023-05-15T07:00:15.170Z,1.15
2023-05-15T07:02:44.165Z,1.35
2023-05-15T07:10:08.332Z,1.10
2023-05-15T07:12:36.057Z,2.03
2023-05-15T07:15:04.988Z,1.17
2023-05-15T07:17:34.584Z,1.55
2023-05-15T07:20:02.595Z,1.58
2023-05-15T07:22:31.503Z,2.13
2023-05-15T07:25:00.962Z,2.13
2023-05-15T07:27:28.651Z,1.20
2023-05-15T07:29:57.721Z,1.20
2023-05-15T07:32:25.347Z,1.25
2023-05-15T07:34:53.212Z,1.13
2023-05-15T07:37:20.762Z,0.73
2023-05-15T07:39:48.518Z,1.05
2023-05-15T07:42:16.912Z,1.15
2023-05-15T07:44:46.534Z,1.00
2023-05-15T07:47:16.113Z,1.08
2023-05-15T07:52:11.711Z,1.17
2023-05-15T07:54:41.958Z,1.60
2023-05-15T07:57:09.725Z,1.10
2023-05-15T07:59:37.903Z,1.00
2023-05-15T08:02:05.983Z,0.98
2023-05-15T08:09:29.346Z,0.90
2023-05-15T08:12:14.315Z,1.10
2023-05-15T08:14:42.067Z,0.93
2023-05-15T08:17:09.787Z,1.33
2023-05-15T08:19:37.336Z,1.00
2023-05-15T08:22:05.076Z,1.20
2023-05-15T08:24:32.926Z,0.60
2023-05-15T08:27:00.641Z,1.40
2023-05-15T08:29:28.376Z,1.27
2023-05-15T08:31:56.633Z,0.73
2023-05-15T08:34:24.941Z,1.17
2023-05-15T08:36:52.973Z,1.20
2023-05-15T08:39:20.850Z,0.52
2023-05-15T08:42:00.702Z,0.93
2023-05-15T08:44:28.797Z,0.80
2023-05-15T08:46:58.474Z,1.92
2023-05-15T08:49:46.708Z,1.23
2023-05-15T08:52:15.307Z,1.67
2023-05-15T08:54:43.545Z,1.30
2023-05-15T08:57:12.309Z,1.30
2023-05-15T09:02:08.712Z,1.30
2023-05-15T09:04:36.539Z,1.00
2023-05-15T09:07:05.588Z,1.10
2023-05-15T09:09:34.968Z,0.80
2023-05-15T09:12:04.261Z,1.45
2023-05-15T09:14:32.001Z,0.90
2023-05-15T09:16:59.851Z,0.65
2023-05-15T09:21:55.515Z,1.20
2023-05-15T09:24:25.427Z,0.50
2023-05-15T09:27:04.871Z,1.05
2023-05-15T09:29:34.437Z,1.20
2023-05-15T09:32:08.774Z,0.98
2023-05-15T09:34:38.679Z,0.90
2023-05-15T09:37:09.821Z,0.73
2023-05-15T09:39:45.185Z,1.20
2023-05-15T09:42:14.819Z,0.77
2023-05-15T09:44:44.842Z,0.70
2023-05-15T09:47:14.318Z,0.95
2023-05-15T09:49:45.470Z,1.13
2023-05-15T09:52:15.696Z,1.30
2023-05-15T09:54:49.498Z,1.02
2023-05-15T09:57:23.702Z,1.00
2023-05-15T09:59:51.714Z,1.10
2023-05-15T10:04:57.511Z,1.10
2023-05-15T10:07:32.317Z,0.90
2023-05-15T10:10:01.291Z,1.13
2023-05-15T10:12:32.107Z,0.85
2023-05-15T10:15:01.168Z,0.85
2023-05-15T10:17:32.521Z,0.80
2023-05-15T10:20:01.395Z,0.70
2023-05-15T10:22:31.133Z,0.90
2023-05-15T10:25:07.894Z,0.50
2023-05-15T10:27:38.321Z,0.93
2023-05-15T10:30:07.656Z,1.42
2023-05-15T10:32:36.722Z,0.85
2023-05-15T10:35:04.651Z,0.63
2023-05-15T10:37:33.248Z,0.68
2023-05-15T10:40:01.693Z,0.93
2023-05-15T10:42:31.046Z,1.00
2023-05-15T10:45:02.974Z,1.00
2023-05-15T10:47:31.937Z,1.02
2023-05-15T10:50:00.140Z,0.88
2023-05-15T10:52:27.886Z,0.90
2023-05-15T10:54:56.924Z,1.10
2023-05-15T10:57:24.611Z,1.23
2023-05-15T10:59:52.240Z,0.73
2023-05-15T11:02:21.515Z,0.50
2023-05-15T11:05:03.750Z,1.10
2023-05-15T11:07:32.397Z,0.90
2023-05-15T11:12:57.854Z,1.20
2023-05-15T11:15:25.689Z,0.95
2023-05-15T11:18:03.812Z,0.90
2023-05-15T11:21:07.614Z,1.20
2023-05-15T11:23:41.018Z,1.08
2023-05-15T11:26:09.136Z,0.57
2023-05-15T11:31:09.337Z,1.10
2023-05-15T11:33:39.600Z,0.80
2023-05-15T11:36:08.354Z,0.70
2023-05-15T11:38:41.117Z,0.95
2023-05-15T11:41:32.263Z,0.75
2023-05-15T11:44:00.026Z,1.10
2023-05-15T11:46:27.952Z,1.05
2023-05-15T11:48:56.249Z,0.40
2023-05-15T11:51:26.812Z,0.70
2023-05-15T11:53:55.873Z,1.67
2023-05-15T11:56:28.562Z,0.80
2023-05-15T11:58:58.851Z,0.70
2023-05-15T12:01:26.705Z,0.60
2023-05-15T12:06:23.336Z,0.70
2023-05-15T12:08:53.049Z,1.23
2023-05-15T12:11:25.198Z,1.02
2023-05-15T12:13:54.396Z,0.85
2023-05-15T12:16:27.089Z,0.80
2023-05-15T12:18:57.462Z,0.70
2023-05-15T12:21:28.485Z,0.52
2023-05-15T12:24:07.001Z,1.10
2023-05-15T12:26:36.349Z,0.77
2023-05-15T12:29:05.768Z,1.20
2023-05-15T12:31:36.909Z,0.70
2023-05-15T12:34:07.416Z,1.02
2023-05-15T12:36:35.067Z,0.95
2023-05-15T12:39:08.031Z,1.10
2023-05-15T12:41:39.030Z,1.02
2023-05-15T12:44:17.138Z,0.82
2023-05-15T12:46:45.443Z,1.17
2023-05-15T12:49:14.313Z,0.90
2023-05-15T12:51:45.516Z,1.10
2023-05-15T12:54:20.752Z,0.60
2023-05-15T12:56:49.308Z,1.10
2023-05-15T12:59:16.932Z,1.02
2023-05-15T13:06:46.297Z,0.60
2023-05-15T13:09:26.680Z,0.80
2023-05-15T13:11:57.471Z,0.80
2023-05-15T13:14:29.163Z,1.10
2023-05-15T13:17:02.535Z,1.17
2023-05-15T13:19:30.904Z,1.27
2023-05-15T13:21:58.727Z,0.95
2023-05-15T13:24:27.048Z,1.08
2023-05-15T13:26:55.574Z,0.70
2023-05-15T13:29:23.168Z,0.90
2023-05-15T13:31:52.099Z,0.90
2023-05-15T13:34:19.759Z,0.90
2023-05-15T13:36:47.432Z,0.98
2023-05-15T13:39:15.760Z,0.90
2023-05-15T13:41:43.899Z,0.80
2023-05-15T13:44:11.591Z,0.90
2023-05-15T13:46:39.298Z,1.25
2023-05-15T13:49:07.801Z,0.75
2023-05-15T13:51:35.394Z,0.70
2023-05-15T13:54:03.145Z,1.02
2023-05-15T13:56:31.280Z,1.10
2023-05-15T13:58:58.840Z,1.30
2023-05-15T14:01:26.728Z,1.42
2023-05-15T14:03:57.348Z,1.23
2023-05-15T14:06:25.849Z,1.25
2023-05-15T14:08:53.558Z,0.60
2023-05-15T14:11:23.023Z,1.27
2023-05-15T14:13:50.977Z,1.00
2023-05-15T14:16:18.766Z,0.98
2023-05-15T14:18:46.873Z,1.35
2023-05-15T14:21:14.664Z,1.20
2023-05-15T14:23:42.269Z,1.00
2023-05-15T14:28:27.996Z,1.33
2023-05-15T14:30:55.939Z,1.20
2023-05-15T14:33:23.889Z,1.30
2023-05-15T14:35:52.036Z,1.15
2023-05-15T14:38:19.706Z,1.33
2023-05-15T14:40:47.406Z,1.20
2023-05-15T14:43:15.982Z,1.30
2023-05-15T14:45:43.595Z,1.10
2023-05-15T14:48:11.833Z,1.83
2023-05-15T14:50:39.645Z,1.52
2023-05-15T14:53:07.684Z,1.10
2023-05-15T14:55:35.549Z,1.00
2023-05-15T14:58:03.457Z,1.25
2023-05-15T15:00:31.269Z,1.42
2023-05-15T15:02:59.611Z,1.20
2023-05-15T15:05:30.029Z,1.58
2023-05-15T15:08:07.866Z,1.60
2023-05-15T15:13:05.289Z,1.38
2023-05-15T15:15:35.184Z,0.95
2023-05-15T15:18:03.937Z,1.20
2023-05-15T15:20:31.788Z,1.20
2023-05-15T15:22:59.682Z,1.42
2023-05-15T15:27:55.036Z,1.13
2023-05-15T15:30:22.698Z,1.40
2023-05-15T15:32:50.329Z,1.20
2023-05-15T15:35:19.513Z,1.08
2023-05-15T15:37:47.242Z,1.55
2023-05-15T15:40:15.921Z,1.00
2023-05-15T15:42:43.554Z,1.40
2023-05-15T15:45:11.168Z,1.10
2023-05-15T15:47:38.879Z,0.98
2023-05-15T15:50:06.867Z,1.67
2023-05-15T15:52:34.920Z,1.10
2023-05-15T15:55:02.820Z,0.75
2023-05-15T15:57:31.570Z,1.20
2023-05-15T15:59:59.226Z,1.20
2023-05-15T16:02:28.385Z,1.08
2023-05-15T16:04:56.127Z,1.23
2023-05-15T16:07:24.027Z,1.08
2023-05-15T16:10:00.221Z,1.00
2023-05-15T16:12:31.842Z,1.10
2023-05-15T16:15:06.800Z,1.55
2023-05-15T16:17:42.809Z,1.48
2023-05-15T16:20:11.604Z,1.27
2023-05-15T16:22:43.509Z,1.27
2023-05-15T16:25:11.422Z,1.38
2023-05-15T16:27:39.042Z,1.58
2023-05-15T16:30:07.630Z,1.20
2023-05-15T16:32:35.604Z,1.00
2023-05-15T16:35:03.713Z,1.33
2023-05-15T16:40:00.803Z,1.08
2023-05-15T16:42:29.539Z,1.50
2023-05-15T16:44:57.608Z,0.98
2023-05-15T16:47:25.203Z,0.98
2023-05-15T16:49:53.553Z,1.55
2023-05-15T16:52:21.188Z,1.45
2023-05-15T16:54:50.802Z,1.75
2023-05-15T16:57:19.727Z,2.05
2023-05-15T16:59:48.287Z,1.73
2023-05-15T17:02:37.175Z,1.80
2023-05-15T17:05:06.051Z,1.90
2023-05-15T17:07:34.351Z,1.35
2023-05-15T17:10:02.819Z,0.85
2023-05-15T17:12:30.605Z,1.42
2023-05-15T17:14:58.295Z,1.20
2023-05-15T17:17:26.262Z,0.95
2023-05-15T17:24:55.137Z,1.75
2023-05-15T17:27:23.487Z,1.40
2023-05-15T17:29:56.524Z,1.67
2023-05-15T17:32:24.646Z,0.90
2023-05-15T17:34:56.812Z,1.58
2023-05-15T17:37:24.414Z,1.50
2023-05-15T17:39:54.660Z,1.73
2023-05-15T17:42:25.072Z,1.45
2023-05-15T17:44:58.886Z,1.30
2023-05-15T17:47:30.879Z,1.50
2023-05-15T17:49:58.587Z,1.65
2023-05-15T17:52:27.004Z,1.20
2023-05-15T17:54:57.577Z,1.17
2023-05-15T17:57:36.290Z,1.60
2023-05-15T18:00:09.392Z,1.30
2023-05-15T18:02:48.252Z,1.30
2023-05-15T18:05:16.574Z,1.60
2023-05-15T18:07:51.642Z,1.55
2023-05-15T18:10:19.768Z,1.40
2023-05-15T18:12:48.920Z,1.27
2023-05-15T18:15:17.071Z,1.55
2023-05-15T18:20:27.566Z,0.82
2023-05-15T18:22:55.173Z,1.33
2023-05-15T18:25:24.521Z,1.77
2023-05-15T18:27:52.690Z,0.80
2023-05-15T18:32:48.581Z,2.20
2023-05-15T18:37:45.316Z,1.05
2023-05-15T18:40:13.732Z,1.42
2023-05-15T18:42:41.478Z,1.52
2023-05-15T18:45:09.631Z,1.33
2023-05-15T18:47:37.438Z,1.25
2023-05-15T18:50:06.247Z,0.70
2023-05-15T18:52:39.250Z,1.17
2023-05-15T18:55:12.844Z,1.00
2023-05-15T19:00:34.027Z,1.13
2023-05-15T19:03:06.710Z,1.65
2023-05-15T19:05:34.751Z,0.85
2023-05-15T19:08:04.544Z,1.45
2023-05-15T19:10:33.294Z,1.15
2023-05-15T19:13:01.241Z,1.20
2023-05-15T19:15:28.911Z,1.40
2023-05-15T19:17:56.678Z,1.58
2023-05-15T19:20:25.426Z,1.40
2023-05-15T19:22:53.105Z,1.40
2023-05-15T19:25:20.993Z,2.08
2023-05-15T19:27:49.182Z,1.45
2023-05-15T19:30:17.130Z,1.10
2023-05-15T19:32:45.409Z,1.42
2023-05-15T19:35:13.770Z,2.30
2023-05-15T19:37:42.493Z,1.95
2023-05-15T19:40:13.055Z,1.42
2023-05-15T19:42:40.616Z,1.48
2023-05-15T19:45:09.163Z,1.58
2023-05-15T19:50:20.444Z,1.58
2023-05-15T19:55:15.851Z,1.08
2023-05-15T19:57:44.928Z,1.38
2023-05-15T20:00:13.598Z,1.23
2023-05-15T20:02:41.974Z,1.25
2023-05-15T20:05:10.236Z,1.30
2023-05-15T20:07:39.324Z,1.67
2023-05-15T20:12:36.893Z,1.40
2023-05-15T20:15:05.107Z,1.85
2023-05-15T20:20:04.716Z,1.48
2023-05-15T20:22:32.212Z,1.77
2023-05-15T20:25:00.245Z,1.50
2023-05-15T20:29:55.742Z,1.50
2023-05-15T20:32:24.090Z,1.80
2023-05-15T20:34:53.886Z,1.77
2023-05-15T20:37:27.248Z,2.70
2023-05-15T20:39:56.271Z,1.92
2023-05-15T20:42:26.467Z,1.50
2023-05-15T20:44:55.083Z,1.67
2023-05-15T20:49:53.131Z,2.65
2023-05-15T20:52:23.021Z,1.65
2023-05-15T20:54:54.029Z,1.88
2023-05-15T20:57:23.690Z,2.00
2023-05-15T21:00:02.901Z,2.30
2023-05-15T21:02:33.293Z,1.98
2023-05-15T21:07:08.817Z,2.25
2023-05-15T21:09:36.527Z,1.67
2023-05-15T21:12:04.912Z,1.88
2023-05-15T21:14:34.173Z,2.38
2023-05-15T21:17:02.097Z,2.15
2023-05-15T21:19:29.808Z,1.95
2023-05-15T21:21:58.577Z,2.10
2023-05-15T21:24:26.691Z,1.70
2023-05-15T21:26:54.534Z,1.65
2023-05-15T21:29:22.141Z,1.70
2023-05-15T21:31:49.738Z,2.47
2023-05-15T21:34:17.513Z,2.00
2023-05-15T21:36:45.126Z,2.47
2023-05-15T21:39:12.783Z,1.48
2023-05-15T21:41:40.663Z,1.90
2023-05-15T21:44:10.063Z,1.85
2023-05-15T21:46:38.214Z,2.25
2023-05-15T21:49:07.715Z,2.35
2023-05-15T21:51:35.490Z,2.30
2023-05-15T21:54:03.253Z,2.25
2023-05-15T21:56:32.267Z,2.05
2023-05-15T21:59:04.972Z,2.30
2023-05-15T22:01:32.836Z,2.10
2023-05-15T22:04:01.209Z,2.78
2023-05-15T22:06:28.837Z,2.05
2023-05-15T22:08:56.626Z,2.40
2023-05-15T22:11:24.264Z,1.58
2023-05-15T22:13:51.902Z,2.72
2023-05-15T22:16:20.908Z,2.45
2023-05-15T22:18:48.806Z,1.90
2023-05-15T22:21:16.783Z,2.28
2023-05-15T22:23:44.339Z,2.42
2023-05-15T22:26:12.351Z,2.03
2023-05-15T22:28:40.035Z,1.52
2023-05-15T22:31:07.915Z,2.03
2023-05-15T22:33:35.952Z,2.53
2023-05-15T22:36:04.089Z,1.60
2023-05-15T22:41:00.680Z,2.22
2023-05-15T22:43:31.108Z,1.60
2023-05-15T22:45:58.714Z,2.22
2023-05-15T22:48:26.611Z,1.65
2023-05-15T22:50:54.228Z,1.80
2023-05-15T22:53:24.633Z,2.17
2023-05-15T22:55:52.850Z,2.00
2023-05-15T22:58:20.894Z,2.55
2023-05-15T23:00:48.823Z,2.58
2023-05-15T23:03:16.899Z,1.42
2023-05-15T23:05:45.754Z,2.72
2023-05-15T23:08:52.128Z,2.65
2023-05-15T23:11:21.650Z,2.30
2023-05-15T23:13:54.891Z,1.73
2023-05-15T23:16:23.421Z,2.58
2023-05-15T23:18:53.317Z,2.60
2023-05-15T23:21:21.465Z,2.30
2023-05-15T23:23:49.479Z,2.20
2023-05-15T23:28:45.156Z,1.77
2023-05-15T23:31:21.320Z,1.98
2023-05-15T23:34:00.442Z,2.40
2023-05-15T23:36:28.559Z,1.80
2023-05-15T23:38:59.639Z,2.30
2023-05-15T23:41:28.682Z,1.98
2023-05-15T23:43:58.585Z,2.08
2023-05-15T23:46:26.552Z,2.05
2023-05-15T23:49:48.406Z,2.17
2023-05-15T23:52:25.065Z,2.45
2023-05-15T23:54:53.855Z,2.00
2023-05-15T23:57:21.830Z,2.75
2023-05-15T23:59:50.934Z,2.53
